Time;durP1;ratioP1;P1;durP2;ratioP2;P2;SDS_P1;SDS_P2;PMS_P1;PMS_P2;Temp;Humidity;BMP_temperature;BMP_pressure;BME280_temperature;BME280_humidity;BME280_pressure;Samples;Min_cycle;Max_cycle;Signal;HPM_P1;HPM_P2
2020/12/06 00:01:28;;;;;;;34.38;22.70;;;1.40;98.00;;;;;;5026455;28;20108;-73
2020/12/06 00:03:53;;;;;;;40.97;26.08;;;1.40;98.00;;;;;;5024309;28;20101;-73
2020/12/06 00:06:22;;;;;;;41.58;25.92;;;1.40;98.00;;;;;;5034324;28;20056;-73
2020/12/06 00:08:49;;;;;;;39.40;26.20;;;1.40;98.00;;;;;;5027553;28;20045;-73
2020/12/06 00:11:16;;;;;;;33.97;23.77;;;1.30;98.00;;;;;;5025874;28;20079;-73
2020/12/06 00:13:42;;;;;;;28.33;21.77;;;1.30;98.00;;;;;;5024367;28;20366;-73
2020/12/06 00:16:13;;;;;;;36.28;24.48;;;1.30;98.00;;;;;;5015035;28;20045;-73
2020/12/06 00:18:39;;;;;;;36.15;23.40;;;1.40;98.00;;;;;;5015615;28;20116;-73
2020/12/06 00:21:05;;;;;;;34.97;23.25;;;1.40;98.00;;;;;;5015963;28;20512;-73
2020/12/06 00:23:31;;;;;;;33.70;22.17;;;1.40;98.00;;;;;;5016817;28;20028;-73
2020/12/06 00:25:56;;;;;;;31.55;20.15;;;1.40;98.00;;;;;;5016807;28;20386;-73
2020/12/06 00:28:22;;;;;;;25.90;18.25;;;1.50;98.00;;;;;;5016064;28;20098;-74
2020/12/06 00:30:51;;;;;;;28.27;18.55;;;1.50;98.00;;;;;;5013090;28;20053;-73
2020/12/06 00:33:16;;;;;;;29.92;19.17;;;1.40;98.00;;;;;;5028712;28;20029;-74
2020/12/06 00:35:42;;;;;;;25.23;17.25;;;1.30;98.00;;;;;;5017679;28;20424;-73
2020/12/06 00:38:07;;;;;;;28.23;19.08;;;1.20;98.00;;;;;;5032790;28;20034;-73
2020/12/06 00:40:33;;;;;;;23.83;16.83;;;1.20;98.00;;;;;;5028715;28;20040;-73
2020/12/06 00:42:59;;;;;;;27.33;15.65;;;1.10;98.00;;;;;;5017389;28;20076;-73
2020/12/06 00:45:24;;;;;;;25.95;17.13;;;1.20;98.00;;;;;;5018567;28;20036;-74
2020/12/06 00:47:50;;;;;;;22.77;16.02;;;1.10;98.00;;;;;;5030970;28;20056;-74
2020/12/06 00:50:15;;;;;;;25.05;16.65;;;1.20;98.00;;;;;;5031219;28;20029;-73
2020/12/06 00:52:41;;;;;;;22.98;16.08;;;1.20;98.00;;;;;;5026302;28;20030;-73
2020/12/06 00:55:07;;;;;;;21.35;16.05;;;1.20;98.00;;;;;;5016868;28;20435;-73
2020/12/06 00:57:32;;;;;;;24.90;16.23;;;1.20;98.00;;;;;;5016501;28;20030;-73
2020/12/06 00:59:58;;;;;;;21.52;14.70;;;1.30;98.00;;;;;;5013762;28;20025;-73
2020/12/06 01:02:24;;;;;;;22.80;15.48;;;1.30;98.00;;;;;;5022279;28;20522;-75
2020/12/06 01:04:49;;;;;;;27.63;17.52;;;1.30;98.00;;;;;;5016914;28;20108;-75
2020/12/06 01:07:18;;;;;;;26.35;18.17;;;1.20;98.00;;;;;;5016144;28;20034;-74
2020/12/06 01:09:43;;;;;;;26.58;18.02;;;1.20;98.00;;;;;;5015888;28;20029;-74
2020/12/06 01:12:09;;;;;;;25.00;16.38;;;1.10;98.00;;;;;;5016161;28;20335;-73
2020/12/06 01:14:35;;;;;;;22.05;15.27;;;1.20;98.00;;;;;;5015381;28;20041;-74
2020/12/06 01:17:00;;;;;;;24.95;16.88;;;1.20;98.00;;;;;;5010707;28;20032;-74
2020/12/06 01:19:27;;;;;;;30.90;20.38;;;1.30;98.00;;;;;;5004848;28;20025;-74
2020/12/06 01:21:55;;;;;;;29.88;18.95;;;1.30;98.00;;;;;;5016191;28;20454;-74
2020/12/06 01:24:23;;;;;;;32.42;20.08;;;1.30;98.00;;;;;;5015298;28;20037;-74
2020/12/06 01:26:49;;;;;;;39.30;22.75;;;1.30;98.00;;;;;;5013128;28;20033;-74
2020/12/06 01:29:15;;;;;;;69.88;26.15;;;1.30;98.00;;;;;;5015522;28;20419;-73
2020/12/06 01:31:48;;;;;;;59.05;25.85;;;1.30;98.00;;;;;;5014131;28;20034;-73
2020/12/06 01:34:14;;;;;;;56.92;24.50;;;1.30;98.00;;;;;;5016302;28;20064;-74
2020/12/06 01:36:40;;;;;;;33.95;21.40;;;1.30;98.00;;;;;;5015712;28;20445;-74
2020/12/06 01:39:06;;;;;;;38.17;22.92;;;1.30;98.00;;;;;;5015448;28;20104;-73
2020/12/06 01:41:32;;;;;;;45.80;23.20;;;1.30;98.00;;;;;;5009381;28;20084;-73
2020/12/06 01:43:59;;;;;;;38.00;20.95;;;1.30;98.00;;;;;;5016089;28;20034;-74
2020/12/06 01:46:25;;;;;;;91.63;22.25;;;1.30;98.00;;;;;;5013476;28;20025;-74
2020/12/06 01:48:53;;;;;;;35.80;22.23;;;1.30;98.00;;;;;;5014495;28;20034;-74
2020/12/06 01:51:20;;;;;;;80.75;24.35;;;1.30;98.00;;;;;;5013087;28;20091;-74
2020/12/06 01:53:48;;;;;;;99.38;25.17;;;1.30;98.00;;;;;;5014567;28;20033;-74
2020/12/06 01:56:14;;;;;;;35.63;22.50;;;1.30;98.00;;;;;;5015118;28;20327;-73
2020/12/06 01:58:40;;;;;;;36.53;22.83;;;1.30;98.00;;;;;;5014910;28;20113;-73
2020/12/06 02:01:08;;;;;;;113.85;24.98;;;1.30;98.00;;;;;;5008197;28;20426;-74
2020/12/06 02:03:33;;;;;;;38.08;22.40;;;1.30;98.00;;;;;;5023149;28;20092;-73
2020/12/06 02:05:59;;;;;;;111.63;25.60;;;1.30;98.00;;;;;;5015149;28;20426;-73
2020/12/06 02:08:24;;;;;;;226.75;32.95;;;1.30;98.00;;;;;;5015313;28;20113;-73
2020/12/06 02:10:54;;;;;;;182.85;34.25;;;1.20;98.00;;;;;;5014536;28;20030;-74
2020/12/06 02:13:23;;;;;;;143.93;32.13;;;1.10;98.00;;;;;;5013889;28;20030;-74
2020/12/06 02:15:49;;;;;;;163.57;30.88;;;1.10;98.00;;;;;;5014135;28;20083;-73
2020/12/06 02:18:16;;;;;;;70.68;28.95;;;1.10;98.00;;;;;;5014613;28;20449;-74
2020/12/06 02:20:43;;;;;;;122.85;32.35;;;1.10;98.00;;;;;;5003987;28;20132;-73
2020/12/06 02:23:08;;;;;;;164.48;35.53;;;1.10;98.00;;;;;;5015343;28;20022;-73
2020/12/06 02:25:35;;;;;;;237.38;40.95;;;1.10;98.00;;;;;;5012825;28;20041;-74
2020/12/06 02:28:02;;;;;;;166.93;33.30;;;1.10;98.00;;;;;;5001391;28;20144;-73
2020/12/06 02:30:28;;;;;;;106.47;30.27;;;1.10;98.00;;;;;;5014718;28;20068;-73
2020/12/06 02:32:53;;;;;;;97.90;25.80;;;1.10;98.00;;;;;;5014136;28;20072;-73
2020/12/06 02:35:19;;;;;;;188.20;32.95;;;1.10;98.00;;;;;;5014539;28;20439;-74
2020/12/06 02:37:45;;;;;;;54.63;25.48;;;1.00;98.00;;;;;;5014910;28;20411;-73
2020/12/06 02:40:10;;;;;;;118.75;28.95;;;1.00;98.00;;;;;;5013743;28;20037;-73
2020/12/06 02:42:36;;;;;;;196.05;32.83;;;1.10;98.00;;;;;;5015119;28;20033;-73
2020/12/06 02:45:05;;;;;;;160.85;28.42;;;1.00;98.00;;;;;;5013484;28;20018;-73
2020/12/06 02:47:30;;;;;;;163.52;27.17;;;1.00;98.00;;;;;;5013967;28;20442;-73
2020/12/06 02:49:56;;;;;;;64.05;23.67;;;1.00;98.00;;;;;;5001952;28;20032;-73
2020/12/06 02:52:21;;;;;;;105.88;24.25;;;1.00;98.00;;;;;;5007522;28;20040;-73
2020/12/06 02:54:48;;;;;;;195.30;28.05;;;1.00;98.00;;;;;;5014951;28;20113;-73
2020/12/06 02:57:13;;;;;;;63.33;24.40;;;1.00;98.00;;;;;;5014334;28;20044;-73
2020/12/06 02:59:39;;;;;;;170.45;25.45;;;0.90;98.00;;;;;;5014804;28;20029;-73
2020/12/06 03:02:07;;;;;;;156.07;30.63;;;1.00;98.00;;;;;;5014339;28;20029;-73
2020/12/06 03:04:33;;;;;;;37.72;22.48;;;0.90;98.00;;;;;;5021501;28;20029;-73
2020/12/06 03:06:58;;;;;;;236.82;29.88;;;1.00;98.00;;;;;;5021300;28;20548;-73
2020/12/06 03:09:30;;;;;;;246.55;28.75;;;0.90;98.00;;;;;;5020893;28;20088;-73
2020/12/06 03:11:55;;;;;;;50.72;24.27;;;0.90;98.00;;;;;;5020026;28;20045;-73
2020/12/06 03:14:21;;;;;;;55.47;23.27;;;0.90;98.00;;;;;;5020226;28;20033;-74
2020/12/06 03:16:47;;;;;;;30.55;21.48;;;1.00;98.00;;;;;;5020250;28;20037;-73
2020/12/06 03:19:12;;;;;;;36.22;22.52;;;1.10;98.00;;;;;;5019678;28;20029;-73
2020/12/06 03:21:41;;;;;;;37.83;22.52;;;1.10;98.00;;;;;;5020406;28;20065;-73
2020/12/06 03:24:06;;;;;;;40.22;21.20;;;1.10;98.00;;;;;;5009637;28;20029;-74
2020/12/06 03:26:32;;;;;;;58.03;22.95;;;1.10;98.00;;;;;;5021113;28;20091;-74
2020/12/06 03:28:58;;;;;;;107.57;23.48;;;1.10;98.00;;;;;;5020165;28;20118;-73
2020/12/06 03:31:26;;;;;;;59.65;22.85;;;1.10;98.00;;;;;;5019501;28;20055;-73
2020/12/06 03:33:51;;;;;;;50.70;23.17;;;1.10;98.00;;;;;;5020385;28;20109;-73
2020/12/06 03:36:20;;;;;;;138.68;23.50;;;1.10;98.00;;;;;;5020909;28;20104;-73
2020/12/06 03:38:46;;;;;;;158.50;26.17;;;1.10;98.00;;;;;;5021031;28;20362;-73
2020/12/06 03:41:12;;;;;;;63.55;25.05;;;1.10;98.00;;;;;;5020105;28;20025;-73
2020/12/06 03:43:37;;;;;;;226.80;31.00;;;1.00;98.00;;;;;;5020061;28;20037;-73
2020/12/06 03:46:03;;;;;;;115.07;26.77;;;1.00;98.00;;;;;;5018377;28;20099;-72
2020/12/06 03:48:28;;;;;;;230.10;30.52;;;1.00;98.00;;;;;;5019373;28;20046;-72
2020/12/06 03:50:57;;;;;;;147.88;28.35;;;0.90;98.00;;;;;;5020962;28;20028;-72
2020/12/06 03:53:22;;;;;;;155.05;26.75;;;0.90;98.00;;;;;;5020113;28;20061;-73
2020/12/06 03:55:48;;;;;;;103.85;28.48;;;0.90;98.00;;;;;;5019600;28;20597;-72
2020/12/06 03:58:14;;;;;;;152.93;25.05;;;1.00;98.00;;;;;;5019393;28;20366;-74
2020/12/06 04:00:39;;;;;;;167.52;26.20;;;1.00;98.00;;;;;;5019146;28;20088;-73
2020/12/06 04:03:05;;;;;;;399.77;30.42;;;1.00;98.00;;;;;;5020901;28;20427;-73
2020/12/06 04:05:31;;;;;;;123.55;24.48;;;1.00;98.00;;;;;;5019608;28;20077;-73
2020/12/06 04:07:56;;;;;;;357.42;31.02;;;1.00;98.00;;;;;;5020194;28;20029;-73
2020/12/06 04:10:22;;;;;;;81.63;23.95;;;1.00;98.00;;;;;;5017584;28;20084;-73
2020/12/06 04:12:48;;;;;;;211.68;26.85;;;1.00;98.00;;;;;;5020524;28;20084;-73
2020/12/06 04:15:13;;;;;;;206.90;26.48;;;1.00;98.00;;;;;;5016326;28;20084;-73
2020/12/06 04:17:39;;;;;;;384.73;29.15;;;1.00;98.00;;;;;;5015931;28;20026;-73
2020/12/06 04:20:06;;;;;;;411.47;30.20;;;1.00;98.00;;;;;;5014304;28;20109;-73
2020/12/06 04:22:34;;;;;;;344.02;30.20;;;1.00;98.00;;;;;;5016872;28;20026;-73
2020/12/06 04:24:59;;;;;;;354.73;31.52;;;0.90;98.00;;;;;;5015554;28;20014;-73
2020/12/06 04:27:25;;;;;;;410.40;35.90;;;0.90;98.00;;;;;;5017208;28;20033;-72
2020/12/06 04:29:51;;;;;;;590.40;42.13;;;0.90;98.00;;;;;;5016466;28;20343;-73
2020/12/06 04:32:16;;;;;;;418.77;33.97;;;0.90;98.00;;;;;;5005595;28;20033;-73
2020/12/06 04:34:45;;;;;;;257.20;34.03;;;0.90;98.00;;;;;;5016698;28;20057;-72
2020/12/06 04:37:11;;;;;;;207.88;32.05;;;0.90;98.00;;;;;;5017655;28;20029;-73
2020/12/06 04:39:40;;;;;;;325.88;33.13;;;0.80;98.00;;;;;;5016420;28;20030;-72
2020/12/06 04:42:05;;;;;;;157.65;31.83;;;0.90;98.00;;;;;;5016594;28;20030;-73
2020/12/06 04:44:31;;;;;;;449.58;39.20;;;0.90;98.00;;;;;;5016267;28;20026;-73
2020/12/06 04:47:02;;;;;;;118.95;30.77;;;0.90;98.00;;;;;;5015432;28;20038;-72
2020/12/06 04:49:55;;;;;;;189.35;30.27;;;0.90;98.00;;;;;;5016338;28;20108;-72
2020/12/06 04:52:25;;;;;;;334.33;34.22;;;0.80;98.00;;;;;;5016447;28;20061;-72
2020/12/06 04:55:02;;;;;;;281.77;32.78;;;0.80;98.00;;;;;;5015726;28;20053;-73
2020/12/06 04:57:29;;;;;;;445.35;35.38;;;0.90;98.00;;;;;;5014256;28;20084;-72
2020/12/06 05:00:09;;;;;;;158.93;27.25;;;0.80;98.00;;;;;;5015609;28;20029;-72
2020/12/06 05:02:41;;;;;;;224.70;30.45;;;0.80;98.00;;;;;;5015782;28;20319;-73
2020/12/06 05:05:07;;;;;;;331.15;31.98;;;0.90;98.00;;;;;;5016614;28;20018;-72
2020/12/06 05:07:35;;;;;;;243.52;31.10;;;0.90;98.00;;;;;;5015719;28;20106;-73
2020/12/06 05:10:00;;;;;;;352.42;32.97;;;0.90;98.00;;;;;;5016260;28;20082;-73
2020/12/06 05:12:26;;;;;;;300.38;34.88;;;0.90;98.00;;;;;;5017084;28;20423;-73
2020/12/06 05:14:55;;;;;;;127.35;27.77;;;0.90;98.00;;;;;;5016091;28;20032;-73
2020/12/06 05:17:21;;;;;;;143.57;31.25;;;0.80;98.00;;;;;;5014842;28;20022;-73
2020/12/06 05:19:47;;;;;;;191.90;32.22;;;0.90;98.00;;;;;;5013453;28;20457;-73
2020/12/06 05:22:13;;;;;;;241.73;33.88;;;0.90;98.00;;;;;;5012537;28;20025;-73
2020/12/06 05:24:41;;;;;;;95.18;25.83;;;0.90;98.00;;;;;;5009782;28;20423;-73
2020/12/06 05:27:08;;;;;;;366.35;38.70;;;0.90;98.00;;;;;;5016413;28;20040;-73
2020/12/06 05:29:40;;;;;;;98.32;28.23;;;0.90;98.00;;;;;;5016150;28;20029;-72
2020/12/06 05:32:07;;;;;;;214.02;31.40;;;0.90;98.00;;;;;;5014349;28;20026;-73
2020/12/06 05:34:32;;;;;;;174.63;31.35;;;0.90;98.00;;;;;;5015892;28;20034;-73
2020/12/06 05:37:05;;;;;;;288.05;32.40;;;0.90;98.00;;;;;;5015618;28;20037;-73
2020/12/06 05:39:30;;;;;;;129.85;29.63;;;0.90;98.00;;;;;;5015960;28;20135;-72
2020/12/06 05:41:58;;;;;;;62.55;27.48;;;0.90;98.00;;;;;;5016444;28;20057;-73
2020/12/06 05:44:24;;;;;;;56.65;27.73;;;1.00;98.00;;;;;;5015873;28;20025;-73
2020/12/06 05:46:50;;;;;;;167.65;32.22;;;1.00;98.00;;;;;;5014808;28;20033;-73
2020/12/06 05:49:19;;;;;;;245.43;34.35;;;1.00;98.00;;;;;;5014782;28;20037;-72
2020/12/06 05:51:53;;;;;;;165.48;32.78;;;1.00;98.00;;;;;;5016024;28;20438;-73
2020/12/06 05:54:23;;;;;;;85.15;30.48;;;1.00;98.00;;;;;;5015428;28;20048;-73
2020/12/06 05:56:51;;;;;;;66.22;30.35;;;1.00;98.00;;;;;;5015829;28;20037;-73
2020/12/06 05:59:20;;;;;;;80.38;29.80;;;1.00;98.00;;;;;;5015702;28;20080;-73
2020/12/06 06:01:50;;;;;;;58.50;28.67;;;1.00;98.00;;;;;;5012407;28;20029;-72
2020/12/06 06:04:20;;;;;;;84.57;32.17;;;1.00;98.00;;;;;;5014587;28;20049;-73
2020/12/06 06:06:47;;;;;;;108.07;34.55;;;1.00;98.00;;;;;;5016132;28;20026;-73
2020/12/06 06:09:15;;;;;;;114.03;33.35;;;1.10;98.00;;;;;;5014351;28;20026;-72
2020/12/06 06:12:13;;;;;;;133.27;35.83;;;1.10;98.00;;;;;;5015869;28;20033;-72
2020/12/06 06:14:39;;;;;;;75.10;32.92;;;1.10;98.00;;;;;;5013043;28;20056;-73
2020/12/06 06:17:06;;;;;;;78.07;32.10;;;1.10;98.00;;;;;;5014136;28;20378;-73
2020/12/06 06:19:32;;;;;;;91.93;33.17;;;1.10;98.00;;;;;;5015400;28;20061;-73
2020/12/06 06:22:00;;;;;;;73.32;30.73;;;1.10;98.00;;;;;;5012975;28;20040;-73
2020/12/06 06:24:33;;;;;;;84.43;32.25;;;1.10;98.00;;;;;;5014512;28;20405;-72
2020/12/06 06:26:58;;;;;;;60.17;29.85;;;1.20;98.00;;;;;;5014403;28;20022;-73
2020/12/06 06:29:24;;;;;;;53.20;27.88;;;1.20;98.00;;;;;;5014175;28;20037;-73
2020/12/06 06:31:54;;;;;;;46.45;25.42;;;1.20;98.00;;;;;;5012752;28;20064;-73
2020/12/06 06:34:30;;;;;;;64.35;28.20;;;1.20;98.00;;;;;;5013483;28;20029;-73
2020/12/06 06:36:56;;;;;;;53.90;26.90;;;1.10;98.00;;;;;;5011174;28;20076;-73
2020/12/06 06:39:23;;;;;;;45.45;26.48;;;1.10;98.00;;;;;;4996041;28;20026;-73
2020/12/06 06:42:04;;;;;;;53.85;26.98;;;1.20;98.00;;;;;;5011156;28;20028;-73
2020/12/06 06:44:31;;;;;;;57.33;29.35;;;1.20;98.00;;;;;;5015376;28;20025;-72
2020/12/06 06:47:05;;;;;;;42.15;25.73;;;1.20;98.00;;;;;;5013309;28;20092;-72
2020/12/06 06:49:30;;;;;;;42.50;25.45;;;1.20;98.00;;;;;;5015380;28;20038;-71
2020/12/06 06:51:57;;;;;;;77.07;28.40;;;1.30;98.00;;;;;;5014778;28;20036;-72
2020/12/06 06:54:30;;;;;;;50.78;26.90;;;1.30;98.00;;;;;;5014879;28;20386;-72
2020/12/06 06:56:58;;;;;;;50.08;29.25;;;1.20;98.00;;;;;;5013040;28;20038;-72
2020/12/06 06:59:37;;;;;;;64.60;33.33;;;1.30;98.00;;;;;;5014891;28;20037;-72
2020/12/06 07:02:04;;;;;;;97.80;34.92;;;1.20;98.00;;;;;;5013203;28;20038;-72
2020/12/06 07:04:30;;;;;;;65.10;30.75;;;1.20;98.00;;;;;;5013451;28;20022;-72
2020/12/06 07:06:56;;;;;;;63.92;29.80;;;1.20;98.00;;;;;;5014369;28;20034;-72
2020/12/06 07:09:26;;;;;;;73.15;30.10;;;1.20;98.00;;;;;;5014195;28;20026;-72
2020/12/06 07:11:59;;;;;;;57.75;30.13;;;1.20;98.00;;;;;;5013667;28;20154;-72
2020/12/06 07:14:28;;;;;;;67.93;32.88;;;1.20;98.00;;;;;;5015145;28;20029;-72
2020/12/06 07:16:58;;;;;;;60.20;31.10;;;1.20;98.00;;;;;;5013365;28;20446;-72
2020/12/06 07:19:26;;;;;;;46.72;27.00;;;1.20;98.00;;;;;;5015278;28;20304;-72
2020/12/06 07:21:52;;;;;;;56.30;28.95;;;1.20;98.00;;;;;;5013849;28;20026;-72
2020/12/06 07:24:18;;;;;;;56.35;28.92;;;1.30;98.00;;;;;;5014909;28;20427;-72
2020/12/06 07:26:46;;;;;;;61.70;29.52;;;1.30;98.00;;;;;;5013897;28;20030;-72
2020/12/06 07:29:12;;;;;;;56.10;28.08;;;1.30;98.00;;;;;;5013502;28;20041;-72
2020/12/06 07:31:38;;;;;;;67.97;29.27;;;1.30;98.00;;;;;;5013740;28;20025;-72
2020/12/06 07:34:05;;;;;;;67.10;30.77;;;1.30;98.00;;;;;;5008826;28;20038;-72
2020/12/06 07:36:35;;;;;;;72.32;27.88;;;1.30;98.00;;;;;;5013816;28;20432;-72
2020/12/06 07:39:13;;;;;;;83.55;29.63;;;1.20;98.00;;;;;;5013875;28;20034;-72
2020/12/06 07:41:46;;;;;;;69.22;28.13;;;1.30;98.00;;;;;;5014656;28;20037;-72
2020/12/06 07:44:13;;;;;;;56.40;28.27;;;1.20;98.00;;;;;;5014411;28;20022;-71
2020/12/06 07:46:40;;;;;;;101.22;30.48;;;1.20;98.00;;;;;;5014095;28;20188;-71
2020/12/06 07:49:06;;;;;;;146.73;29.92;;;1.20;98.00;;;;;;5020324;28;20112;-72
2020/12/06 07:51:31;;;;;;;87.78;33.78;;;1.20;98.00;;;;;;5024392;28;20108;-71
2020/12/06 07:53:59;;;;;;;74.53;31.25;;;1.20;98.00;;;;;;5017805;28;20026;-72
2020/12/06 07:56:32;;;;;;;80.10;35.25;;;1.20;98.00;;;;;;5023013;28;20030;-71
2020/12/06 07:59:07;;;;;;;106.32;39.28;;;1.20;98.00;;;;;;5016854;28;20044;-72
2020/12/06 08:01:33;;;;;;;66.80;33.30;;;1.30;98.00;;;;;;5027104;28;21257;-71
2020/12/06 08:03:59;;;;;;;68.68;31.55;;;1.30;98.00;;;;;;5020783;28;20018;-71
2020/12/06 08:06:27;;;;;;;47.92;26.30;;;1.30;98.00;;;;;;5018214;28;20076;-71
2020/12/06 08:08:59;;;;;;;49.72;26.60;;;1.40;98.00;;;;;;5018445;28;20108;-72
2020/12/06 08:11:40;;;;;;;46.80;24.65;;;1.40;98.00;;;;;;5018530;28;20030;-73
2020/12/06 08:14:07;;;;;;;49.78;26.48;;;1.40;98.00;;;;;;5026261;28;20092;-72
2020/12/06 08:16:35;;;;;;;39.30;23.00;;;1.50;98.00;;;;;;5018228;28;20105;-72
2020/12/06 08:19:02;;;;;;;53.60;26.48;;;1.50;98.00;;;;;;5031674;28;20148;-73
2020/12/06 08:21:42;;;;;;;49.13;25.70;;;1.50;98.00;;;;;;5019471;28;20335;-72
2020/12/06 08:24:21;;;;;;;49.47;26.20;;;1.50;98.00;;;;;;5019282;28;20050;-72
2020/12/06 08:26:49;;;;;;;55.92;26.13;;;1.50;98.00;;;;;;5012229;28;20418;-71
2020/12/06 08:29:15;;;;;;;57.28;27.80;;;1.60;98.00;;;;;;5017126;28;20038;-72
2020/12/06 08:31:42;;;;;;;49.00;26.70;;;1.60;98.00;;;;;;5016018;28;20030;-72
2020/12/06 08:34:11;;;;;;;49.17;25.13;;;1.60;98.00;;;;;;5018138;28;20168;-74
2020/12/06 08:36:39;;;;;;;45.28;24.10;;;1.70;98.00;;;;;;5019971;28;20104;-72
2020/12/06 08:39:21;;;;;;;42.38;23.30;;;1.70;98.00;;;;;;5020542;28;20025;-72
2020/12/06 08:41:48;;;;;;;36.60;21.98;;;1.80;98.00;;;;;;5023369;28;20419;-72
2020/12/06 08:44:15;;;;;;;42.03;23.02;;;1.90;98.00;;;;;;5020515;28;20038;-72
2020/12/06 08:46:51;;;;;;;37.97;20.60;;;2.00;98.00;;;;;;5026424;28;20165;-72
2020/12/06 08:49:24;;;;;;;33.13;20.42;;;2.10;98.00;;;;;;5016980;28;20132;-72
2020/12/06 08:51:56;;;;;;;30.17;18.85;;;2.10;98.00;;;;;;5022432;28;20188;-72
2020/12/06 08:54:36;;;;;;;29.27;17.98;;;2.20;98.00;;;;;;5023359;28;20423;-71
2020/12/06 08:57:11;;;;;;;31.92;18.63;;;2.20;98.00;;;;;;5017363;28;20029;-72
2020/12/06 08:59:38;;;;;;;40.60;18.88;;;2.20;98.00;;;;;;5021375;28;20335;-72
2020/12/06 09:02:05;;;;;;;34.08;19.77;;;2.20;98.00;;;;;;5018665;28;20030;-71
2020/12/06 09:04:33;;;;;;;34.28;17.13;;;2.20;98.00;;;;;;5014726;28;20044;-72
2020/12/06 09:06:59;;;;;;;25.17;15.43;;;2.20;98.00;;;;;;5027499;28;20387;-73
2020/12/06 09:09:24;;;;;;;26.90;15.57;;;2.00;98.00;;;;;;5020098;28;20109;-72
2020/12/06 09:11:54;;;;;;;27.08;15.90;;;2.00;98.00;;;;;;5014480;28;20419;-73
2020/12/06 09:14:20;;;;;;;33.75;19.30;;;2.00;98.00;;;;;;5019051;28;20037;-73
2020/12/06 09:16:48;;;;;;;34.85;19.85;;;2.00;98.00;;;;;;5016785;28;20029;-73
2020/12/06 09:19:14;;;;;;;39.30;20.48;;;1.90;98.00;;;;;;5016214;28;20033;-73
2020/12/06 09:21:39;;;;;;;32.53;20.08;;;1.90;98.00;;;;;;5013560;28;20087;-73
2020/12/06 09:24:05;;;;;;;46.92;22.77;;;2.00;98.00;;;;;;5026323;28;20029;-73
2020/12/06 09:26:32;;;;;;;32.28;20.27;;;1.90;98.00;;;;;;5021156;28;20033;-73
2020/12/06 09:28:58;;;;;;;63.53;25.88;;;1.90;98.00;;;;;;5021284;28;20033;-73
2020/12/06 09:31:24;;;;;;;62.78;31.10;;;1.80;98.00;;;;;;5014764;28;20034;-73
2020/12/06 09:33:51;;;;;;;147.10;26.25;;;1.70;98.00;;;;;;5014202;28;20030;-74
2020/12/06 09:36:17;;;;;;;108.03;27.40;;;1.70;98.00;;;;;;5010845;28;20026;-73
2020/12/06 09:38:42;;;;;;;66.07;28.52;;;1.70;98.00;;;;;;5015496;28;20040;-73
2020/12/06 09:41:11;;;;;;;33.13;18.48;;;1.70;98.00;;;;;;5015106;28;20430;-73
2020/12/06 09:43:38;;;;;;;25.55;16.55;;;1.70;98.00;;;;;;5014150;28;20430;-73
2020/12/06 09:46:03;;;;;;;39.83;19.80;;;1.70;98.00;;;;;;5003650;28;20105;-74
2020/12/06 09:48:29;;;;;;;24.42;16.30;;;1.70;98.00;;;;;;5012144;28;20131;-74
2020/12/06 09:50:55;;;;;;;94.65;20.00;;;1.70;98.00;;;;;;5011111;28;20026;-74
2020/12/06 09:53:20;;;;;;;24.15;15.35;;;1.70;98.00;;;;;;5012239;28;20117;-74
2020/12/06 09:55:46;;;;;;;19.98;13.82;;;1.70;98.00;;;;;;5010507;28;20030;-74
2020/12/06 09:58:12;;;;;;;34.03;19.40;;;1.70;98.00;;;;;;5010951;28;20048;-74
2020/12/06 10:00:37;;;;;;;18.33;13.77;;;1.70;98.00;;;;;;5010095;28;20030;-74
2020/12/06 10:03:03;;;;;;;23.30;14.73;;;1.70;98.00;;;;;;5014774;28;20076;-74
2020/12/06 10:05:29;;;;;;;19.90;14.50;;;1.70;98.00;;;;;;5009030;28;20034;-74
2020/12/06 10:07:54;;;;;;;14.05;11.05;;;1.60;98.00;;;;;;5006197;28;20033;-74
2020/12/06 10:10:20;;;;;;;15.57;11.98;;;1.60;98.00;;;;;;5005779;28;20022;-74
2020/12/06 10:12:46;;;;;;;12.80;9.88;;;1.70;98.00;;;;;;5005912;28;20026;-74
2020/12/06 10:15:11;;;;;;;14.60;10.30;;;1.70;98.00;;;;;;5004073;28;20099;-74
2020/12/06 10:17:38;;;;;;;10.77;8.32;;;1.70;98.00;;;;;;5003198;28;20033;-74
2020/12/06 10:20:06;;;;;;;10.65;8.73;;;1.70;98.00;;;;;;5004074;28;20021;-74
2020/12/06 10:22:31;;;;;;;9.30;7.30;;;1.70;98.00;;;;;;5005582;28;20030;-72
2020/12/06 10:24:57;;;;;;;9.95;7.30;;;1.80;98.00;;;;;;5004909;28;20865;-72
2020/12/06 10:27:23;;;;;;;9.68;7.30;;;1.80;98.00;;;;;;5009759;28;20026;-71
2020/12/06 10:29:49;;;;;;;11.48;8.00;;;1.80;98.00;;;;;;5013983;28;20025;-71
2020/12/06 10:32:16;;;;;;;11.68;7.75;;;1.90;98.00;;;;;;5013170;28;20033;-71
2020/12/06 10:34:44;;;;;;;11.95;9.07;;;2.00;98.00;;;;;;5014193;28;20487;-72
2020/12/06 10:37:11;;;;;;;12.30;8.63;;;2.00;98.00;;;;;;5005059;28;20041;-72
2020/12/06 10:39:36;;;;;;;12.18;8.88;;;2.10;98.00;;;;;;5006396;28;20026;-73
2020/12/06 10:42:02;;;;;;;11.98;7.75;;;2.10;98.00;;;;;;5001880;28;20111;-73
2020/12/06 10:44:28;;;;;;;8.30;5.72;;;2.10;98.00;;;;;;5008244;28;20419;-72
2020/12/06 10:46:53;;;;;;;23.85;15.50;;;2.30;98.00;;;;;;5001484;28;20034;-73
2020/12/06 10:49:20;;;;;;;13.15;9.25;;;2.40;98.00;;;;;;5003349;28;20026;-72
2020/12/06 10:51:51;;;;;;;10.18;6.68;;;2.50;98.00;;;;;;5005275;28;20514;-72
2020/12/06 10:54:16;;;;;;;8.88;5.80;;;2.50;98.00;;;;;;5003410;28;20587;-71
2020/12/06 10:56:43;;;;;;;19.58;11.77;;;2.40;98.00;;;;;;5012304;28;20026;-73
2020/12/06 10:59:10;;;;;;;12.18;9.32;;;2.60;98.00;;;;;;5011083;28;20277;-73
2020/12/06 11:01:36;;;;;;;8.00;5.38;;;2.60;98.00;;;;;;5013699;28;20037;-72
2020/12/06 11:04:04;;;;;;;7.03;4.70;;;2.70;98.00;;;;;;5014002;28;20033;-73
2020/12/06 11:06:30;;;;;;;5.70;3.83;;;2.70;98.00;;;;;;5005413;28;20046;-73
2020/12/06 11:09:00;;;;;;;15.57;9.52;;;2.70;98.00;;;;;;5005475;28;20072;-72
2020/12/06 11:11:26;;;;;;;11.77;5.82;;;2.70;98.00;;;;;;5010151;28;20038;-74
2020/12/06 11:13:53;;;;;;;17.02;9.35;;;2.70;98.00;;;;;;5013890;28;20053;-73
2020/12/06 11:16:23;;;;;;;30.92;15.10;;;2.70;98.00;;;;;;5005955;28;20434;-72
2020/12/06 11:18:50;;;;;;;12.13;7.88;;;2.80;98.00;;;;;;5012882;28;20128;-72
2020/12/06 11:21:18;;;;;;;12.00;7.03;;;2.80;98.00;;;;;;5014656;28;20419;-73
2020/12/06 11:23:45;;;;;;;9.73;6.43;;;2.80;98.00;;;;;;5018909;28;20034;-72
2020/12/06 11:26:18;;;;;;;10.15;4.97;;;2.70;98.00;;;;;;5017661;28;20132;-73
2020/12/06 11:28:47;;;;;;;7.32;5.55;;;2.70;98.00;;;;;;5017510;28;20022;-73
2020/12/06 11:31:14;;;;;;;7.32;4.72;;;2.60;98.00;;;;;;5017395;28;20326;-73
2020/12/06 11:33:40;;;;;;;8.05;4.68;;;2.60;98.00;;;;;;5027831;28;20025;-73
2020/12/06 11:36:07;;;;;;;5.32;3.83;;;2.60;98.00;;;;;;5032094;28;20034;-73
2020/12/06 11:38:32;;;;;;;5.93;4.20;;;2.60;98.00;;;;;;5019419;28;20026;-73
2020/12/06 11:40:58;;;;;;;7.15;4.07;;;2.60;98.00;;;;;;5021468;28;20103;-74
2020/12/06 11:43:24;;;;;;;7.60;5.03;;;2.80;98.00;;;;;;5018769;28;20101;-73
2020/12/06 11:45:50;;;;;;;7.03;5.22;;;2.90;98.00;;;;;;5017626;28;20077;-74
2020/12/06 11:48:16;;;;;;;6.45;4.28;;;3.00;98.00;;;;;;5018059;28;20241;-73
2020/12/06 11:50:42;;;;;;;6.43;4.43;;;3.00;98.00;;;;;;5014847;28;20033;-73
2020/12/06 11:53:07;;;;;;;7.75;5.57;;;3.00;98.00;;;;;;5020148;28;20372;-73
2020/12/06 11:55:33;;;;;;;13.32;6.95;;;3.10;98.00;;;;;;5016937;28;20037;-73
2020/12/06 11:57:59;;;;;;;8.57;6.47;;;3.10;98.00;;;;;;5017246;28;20076;-72
2020/12/06 12:00:25;;;;;;;8.57;5.60;;;3.30;98.00;;;;;;5016487;28;20030;-72
2020/12/06 12:02:50;;;;;;;11.60;7.03;;;3.30;98.00;;;;;;5015489;28;20036;-74
2020/12/06 12:05:16;;;;;;;14.70;9.00;;;3.30;98.00;;;;;;5017497;28;20030;-72
2020/12/06 12:07:42;;;;;;;13.13;7.70;;;3.20;98.00;;;;;;5007868;28;20030;-73
2020/12/06 12:10:08;;;;;;;17.75;10.93;;;3.00;98.00;;;;;;5012500;28;20023;-73
2020/12/06 12:12:35;;;;;;;16.65;8.75;;;3.00;98.00;;;;;;5013763;28;20041;-73
2020/12/06 12:15:00;;;;;;;15.90;10.13;;;3.00;98.00;;;;;;5004402;28;20036;-73
2020/12/06 12:17:26;;;;;;;17.42;10.32;;;3.10;98.00;;;;;;5016065;28;20339;-72
2020/12/06 12:19:51;;;;;;;15.77;9.88;;;3.10;98.00;;;;;;5017145;28;20057;-73
2020/12/06 12:22:20;;;;;;;15.60;8.88;;;3.10;98.00;;;;;;5017639;28;20041;-73
2020/12/06 12:24:49;;;;;;;10.35;6.70;;;3.10;98.00;;;;;;5009033;28;20212;-72
2020/12/06 12:27:14;;;;;;;11.50;7.65;;;3.10;98.00;;;;;;5011845;28;20073;-73
2020/12/06 12:29:40;;;;;;;10.95;7.40;;;3.00;98.00;;;;;;5015532;28;20026;-73
2020/12/06 12:32:06;;;;;;;7.80;5.88;;;3.00;98.00;;;;;;5014779;28;20036;-73
2020/12/06 12:34:31;;;;;;;12.35;7.53;;;2.90;98.00;;;;;;5003151;28;20083;-73
2020/12/06 12:36:57;;;;;;;9.70;6.68;;;2.80;98.00;;;;;;5015745;28;20030;-73